sensor_id;sensor_type;location;lat;lon;timestamp;temperature;humidity
25188;DHT22;13141;50.414;8.050;2023-03-11T00:00:14;3.00;99.90
25188;DHT22;13141;50.414;8.050;2023-03-11T00:02:41;3.00;99.90
25188;DHT22;13141;50.414;8.050;2023-03-11T00:05:07;3.00;99.90
25188;DHT22;13141;50.414;8.050;2023-03-11T00:07:34;3.00;99.90
25188;DHT22;13141;50.414;8.050;2023-03-11T00:10:00;3.00;99.90
25188;DHT22;13141;50.414;8.050;2023-03-11T00:12:25;3.00;99.90
25188;DHT22;13141;50.414;8.050;2023-03-11T00:14:51;2.90;99.90
25188;DHT22;13141;50.414;8.050;2023-03-11T00:17:17;2.90;99.90
25188;DHT22;13141;50.414;8.050;2023-03-11T00:19:43;2.90;99.90
25188;DHT22;13141;50.414;8.050;2023-03-11T00:22:09;2.90;99.90
25188;DHT22;13141;50.414;8.050;2023-03-11T00:24:36;2.90;99.90
25188;DHT22;13141;50.414;8.050;2023-03-11T00:27:02;2.90;99.90
25188;DHT22;13141;50.414;8.050;2023-03-11T00:29:28;2.90;99.90
25188;DHT22;13141;50.414;8.050;2023-03-11T00:31:53;2.90;99.90
25188;DHT22;13141;50.414;8.050;2023-03-11T00:34:19;2.90;99.90
25188;DHT22;13141;50.414;8.050;2023-03-11T00:36:44;2.90;99.90
25188;DHT22;13141;50.414;8.050;2023-03-11T00:39:10;2.90;99.90
25188;DHT22;13141;50.414;8.050;2023-03-11T00:41:37;2.90;99.90
25188;DHT22;13141;50.414;8.050;2023-03-11T00:44:03;3.10;99.90
25188;DHT22;13141;50.414;8.050;2023-03-11T00:46:29;2.90;99.90
25188;DHT22;13141;50.414;8.050;2023-03-11T00:48:54;2.80;99.90
25188;DHT22;13141;50.414;8.050;2023-03-11T00:51:20;2.90;99.90
25188;DHT22;13141;50.414;8.050;2023-03-11T00:53:45;2.80;99.90
25188;DHT22;13141;50.414;8.050;2023-03-11T00:56:13;2.80;99.90
25188;DHT22;13141;50.414;8.050;2023-03-11T00:58:43;2.80;99.90
25188;DHT22;13141;50.414;8.050;2023-03-11T01:01:11;2.70;99.90
25188;DHT22;13141;50.414;8.050;2023-03-11T01:03:37;2.80;99.90
25188;DHT22;13141;50.414;8.050;2023-03-11T01:06:04;2.80;99.90
25188;DHT22;13141;50.414;8.050;2023-03-11T01:08:29;2.80;99.90
25188;DHT22;13141;50.414;8.050;2023-03-11T01:10:55;2.80;99.90
25188;DHT22;13141;50.414;8.050;2023-03-11T01:13:20;2.80;99.90
25188;DHT22;13141;50.414;8.050;2023-03-11T01:15:47;2.90;99.90
25188;DHT22;13141;50.414;8.050;2023-03-11T01:18:13;2.90;99.90
25188;DHT22;13141;50.414;8.050;2023-03-11T01:20:39;2.90;99.90
25188;DHT22;13141;50.414;8.050;2023-03-11T01:23:04;2.80;99.90
25188;DHT22;13141;50.414;8.050;2023-03-11T01:25:30;2.90;99.90
25188;DHT22;13141;50.414;8.050;2023-03-11T01:27:56;2.90;99.90
25188;DHT22;13141;50.414;8.050;2023-03-11T01:30:23;2.90;99.90
25188;DHT22;13141;50.414;8.050;2023-03-11T01:32:52;2.90;99.90
25188;DHT22;13141;50.414;8.050;2023-03-11T01:35:19;2.90;99.90
25188;DHT22;13141;50.414;8.050;2023-03-11T01:37:45;3.20;99.90
25188;DHT22;13141;50.414;8.050;2023-03-11T01:40:14;2.90;99.90
25188;DHT22;13141;50.414;8.050;2023-03-11T01:42:40;3.00;99.90
25188;DHT22;13141;50.414;8.050;2023-03-11T01:45:28;3.00;99.90
25188;DHT22;13141;50.414;8.050;2023-03-11T01:47:56;3.00;99.90
25188;DHT22;13141;50.414;8.050;2023-03-11T01:50:22;3.10;99.90
25188;DHT22;13141;50.414;8.050;2023-03-11T01:52:50;3.00;99.90
25188;DHT22;13141;50.414;8.050;2023-03-11T01:55:17;3.00;99.90
25188;DHT22;13141;50.414;8.050;2023-03-11T01:57:43;3.10;99.90
25188;DHT22;13141;50.414;8.050;2023-03-11T02:00:12;3.00;99.90
25188;DHT22;13141;50.414;8.050;2023-03-11T02:02:40;3.00;99.90
25188;DHT22;13141;50.414;8.050;2023-03-11T02:05:08;3.00;99.90
25188;DHT22;13141;50.414;8.050;2023-03-11T02:07:34;3.00;99.90
25188;DHT22;13141;50.414;8.050;2023-03-11T02:09:59;3.20;99.90
25188;DHT22;13141;50.414;8.050;2023-03-11T02:12:28;3.10;99.90
25188;DHT22;13141;50.414;8.050;2023-03-11T02:14:55;3.10;99.90
25188;DHT22;13141;50.414;8.050;2023-03-11T02:17:21;3.10;99.90
25188;DHT22;13141;50.414;8.050;2023-03-11T02:19:57;3.20;99.90
25188;DHT22;13141;50.414;8.050;2023-03-11T02:22:27;3.10;99.90
25188;DHT22;13141;50.414;8.050;2023-03-11T02:24:58;3.10;99.90
25188;DHT22;13141;50.414;8.050;2023-03-11T02:27:30;3.10;99.90
25188;DHT22;13141;50.414;8.050;2023-03-11T02:29:59;3.30;99.90
25188;DHT22;13141;50.414;8.050;2023-03-11T02:32:25;3.10;99.90
25188;DHT22;13141;50.414;8.050;2023-03-11T02:34:51;3.10;99.90
25188;DHT22;13141;50.414;8.050;2023-03-11T02:37:17;3.10;99.90
25188;DHT22;13141;50.414;8.050;2023-03-11T02:39:44;3.10;99.90
25188;DHT22;13141;50.414;8.050;2023-03-11T02:42:12;3.10;99.90
25188;DHT22;13141;50.414;8.050;2023-03-11T02:44:42;3.30;99.90
25188;DHT22;13141;50.414;8.050;2023-03-11T02:47:08;3.10;99.90
25188;DHT22;13141;50.414;8.050;2023-03-11T02:49:34;3.10;99.90
25188;DHT22;13141;50.414;8.050;2023-03-11T02:52:00;3.00;99.90
25188;DHT22;13141;50.414;8.050;2023-03-11T02:54:26;3.10;99.90
25188;DHT22;13141;50.414;8.050;2023-03-11T02:56:51;3.10;99.90
25188;DHT22;13141;50.414;8.050;2023-03-11T02:59:17;3.10;99.90
25188;DHT22;13141;50.414;8.050;2023-03-11T03:01:44;3.30;99.90
25188;DHT22;13141;50.414;8.050;2023-03-11T03:04:09;3.10;99.90
25188;DHT22;13141;50.414;8.050;2023-03-11T03:06:35;3.10;99.90
25188;DHT22;13141;50.414;8.050;2023-03-11T03:09:01;3.00;99.90
25188;DHT22;13141;50.414;8.050;2023-03-11T03:11:27;3.00;99.90
25188;DHT22;13141;50.414;8.050;2023-03-11T03:13:52;3.10;99.90
25188;DHT22;13141;50.414;8.050;2023-03-11T03:16:18;3.00;99.90
25188;DHT22;13141;50.414;8.050;2023-03-11T03:18:45;2.60;99.90
25188;DHT22;13141;50.414;8.050;2023-03-11T03:21:10;3.10;99.90
25188;DHT22;13141;50.414;8.050;2023-03-11T03:23:36;3.00;99.90
25188;DHT22;13141;50.414;8.050;2023-03-11T03:26:02;3.00;99.90
25188;DHT22;13141;50.414;8.050;2023-03-11T03:28:28;3.10;99.90
25188;DHT22;13141;50.414;8.050;2023-03-11T03:30:53;3.10;99.90
25188;DHT22;13141;50.414;8.050;2023-03-11T03:33:19;3.10;99.90
25188;DHT22;13141;50.414;8.050;2023-03-11T03:35:46;3.20;99.90
25188;DHT22;13141;50.414;8.050;2023-03-11T03:38:12;3.00;99.90
25188;DHT22;13141;50.414;8.050;2023-03-11T03:40:38;3.10;99.90
25188;DHT22;13141;50.414;8.050;2023-03-11T03:43:04;3.10;99.90
25188;DHT22;13141;50.414;8.050;2023-03-11T03:45:30;3.10;99.90
25188;DHT22;13141;50.414;8.050;2023-03-11T03:47:55;3.10;99.90
25188;DHT22;13141;50.414;8.050;2023-03-11T03:50:21;3.10;99.90
25188;DHT22;13141;50.414;8.050;2023-03-11T03:52:48;3.10;99.90
25188;DHT22;13141;50.414;8.050;2023-03-11T03:55:14;3.10;99.90
25188;DHT22;13141;50.414;8.050;2023-03-11T03:57:40;3.10;99.90
25188;DHT22;13141;50.414;8.050;2023-03-11T04:00:06;3.10;99.90
25188;DHT22;13141;50.414;8.050;2023-03-11T04:02:32;3.10;99.90
25188;DHT22;13141;50.414;8.050;2023-03-11T04:04:57;3.10;99.90
25188;DHT22;13141;50.414;8.050;2023-03-11T04:07:23;3.10;99.90
25188;DHT22;13141;50.414;8.050;2023-03-11T04:09:50;3.20;99.90
25188;DHT22;13141;50.414;8.050;2023-03-11T04:12:15;3.10;99.90
25188;DHT22;13141;50.414;8.050;2023-03-11T04:14:41;3.10;99.90
25188;DHT22;13141;50.414;8.050;2023-03-11T04:17:08;3.10;99.90
25188;DHT22;13141;50.414;8.050;2023-03-11T04:19:34;3.10;99.90
25188;DHT22;13141;50.414;8.050;2023-03-11T04:21:59;3.00;99.90
25188;DHT22;13141;50.414;8.050;2023-03-11T04:24:25;3.00;99.90
25188;DHT22;13141;50.414;8.050;2023-03-11T04:26:52;3.00;99.90
25188;DHT22;13141;50.414;8.050;2023-03-11T04:29:18;3.30;99.90
25188;DHT22;13141;50.414;8.050;2023-03-11T04:31:43;3.00;99.90
25188;DHT22;13141;50.414;8.050;2023-03-11T04:34:09;3.00;99.90
25188;DHT22;13141;50.414;8.050;2023-03-11T04:36:34;3.00;99.90
25188;DHT22;13141;50.414;8.050;2023-03-11T04:39:00;2.90;99.90
25188;DHT22;13141;50.414;8.050;2023-03-11T04:41:26;2.90;99.90
25188;DHT22;13141;50.414;8.050;2023-03-11T04:43:53;3.10;99.90
25188;DHT22;13141;50.414;8.050;2023-03-11T04:46:18;2.90;99.90
25188;DHT22;13141;50.414;8.050;2023-03-11T04:48:44;2.90;99.90
25188;DHT22;13141;50.414;8.050;2023-03-11T04:51:09;2.90;99.90
25188;DHT22;13141;50.414;8.050;2023-03-11T04:53:35;2.90;99.90
25188;DHT22;13141;50.414;8.050;2023-03-11T04:56:01;2.90;99.90
25188;DHT22;13141;50.414;8.050;2023-03-11T04:58:26;3.00;99.90
25188;DHT22;13141;50.414;8.050;2023-03-11T05:00:53;2.90;99.90
25188;DHT22;13141;50.414;8.050;2023-03-11T05:03:19;2.90;99.90
25188;DHT22;13141;50.414;8.050;2023-03-11T05:05:44;2.90;99.90
25188;DHT22;13141;50.414;8.050;2023-03-11T05:08:10;2.90;99.90
25188;DHT22;13141;50.414;8.050;2023-03-11T05:10:36;2.90;99.90
25188;DHT22;13141;50.414;8.050;2023-03-11T05:13:01;2.90;99.90
25188;DHT22;13141;50.414;8.050;2023-03-11T05:15:27;2.90;99.90
25188;DHT22;13141;50.414;8.050;2023-03-11T05:17:54;2.80;99.90
25188;DHT22;13141;50.414;8.050;2023-03-11T05:20:20;2.80;99.90
25188;DHT22;13141;50.414;8.050;2023-03-11T05:22:45;2.80;99.90
25188;DHT22;13141;50.414;8.050;2023-03-11T05:25:11;2.80;99.90
25188;DHT22;13141;50.414;8.050;2023-03-11T05:27:37;2.70;99.90
25188;DHT22;13141;50.414;8.050;2023-03-11T05:30:04;2.90;99.90
25188;DHT22;13141;50.414;8.050;2023-03-11T05:32:29;2.70;99.90
25188;DHT22;13141;50.414;8.050;2023-03-11T05:34:56;2.70;99.90
25188;DHT22;13141;50.414;8.050;2023-03-11T05:37:22;2.70;99.90
25188;DHT22;13141;50.414;8.050;2023-03-11T05:39:48;2.60;99.90
25188;DHT22;13141;50.414;8.050;2023-03-11T05:42:13;2.60;99.90
25188;DHT22;13141;50.414;8.050;2023-03-11T05:44:39;2.60;99.90
25188;DHT22;13141;50.414;8.050;2023-03-11T05:47:05;2.60;99.90
25188;DHT22;13141;50.414;8.050;2023-03-11T05:49:31;2.50;99.90
25188;DHT22;13141;50.414;8.050;2023-03-11T05:51:58;2.50;99.90
25188;DHT22;13141;50.414;8.050;2023-03-11T05:54:23;2.50;99.90
25188;DHT22;13141;50.414;8.050;2023-03-11T05:56:49;2.50;99.90
25188;DHT22;13141;50.414;8.050;2023-03-11T05:59:15;2.70;99.90
25188;DHT22;13141;50.414;8.050;2023-03-11T06:01:41;2.50;99.90
25188;DHT22;13141;50.414;8.050;2023-03-11T06:04:06;2.60;99.90
25188;DHT22;13141;50.414;8.050;2023-03-11T06:06:32;2.60;99.90
25188;DHT22;13141;50.414;8.050;2023-03-11T06:08:59;2.60;99.90
25188;DHT22;13141;50.414;8.050;2023-03-11T06:11:25;2.60;99.90
25188;DHT22;13141;50.414;8.050;2023-03-11T06:13:51;2.50;99.90
25188;DHT22;13141;50.414;8.050;2023-03-11T06:16:17;2.50;99.90
25188;DHT22;13141;50.414;8.050;2023-03-11T06:18:43;2.50;99.90
25188;DHT22;13141;50.414;8.050;2023-03-11T06:21:12;2.50;99.90
25188;DHT22;13141;50.414;8.050;2023-03-11T06:23:39;2.50;99.90
25188;DHT22;13141;50.414;8.050;2023-03-11T06:26:06;2.50;99.90
25188;DHT22;13141;50.414;8.050;2023-03-11T06:28:32;2.60;99.90
25188;DHT22;13141;50.414;8.050;2023-03-11T06:31:06;2.50;99.90
25188;DHT22;13141;50.414;8.050;2023-03-11T06:33:31;2.50;99.90
25188;DHT22;13141;50.414;8.050;2023-03-11T06:35:57;2.50;99.90
25188;DHT22;13141;50.414;8.050;2023-03-11T06:38:23;2.60;99.90
25188;DHT22;13141;50.414;8.050;2023-03-11T06:40:49;2.60;99.90
25188;DHT22;13141;50.414;8.050;2023-03-11T06:43:15;2.20;99.90
25188;DHT22;13141;50.414;8.050;2023-03-11T06:45:41;2.60;99.90
25188;DHT22;13141;50.414;8.050;2023-03-11T06:48:07;2.60;99.90
25188;DHT22;13141;50.414;8.050;2023-03-11T06:50:32;2.60;99.90
25188;DHT22;13141;50.414;8.050;2023-03-11T06:52:58;2.60;99.90
25188;DHT22;13141;50.414;8.050;2023-03-11T06:55:23;2.70;99.90
25188;DHT22;13141;50.414;8.050;2023-03-11T06:57:49;2.70;99.90
25188;DHT22;13141;50.414;8.050;2023-03-11T07:00:16;2.70;99.90
25188;DHT22;13141;50.414;8.050;2023-03-11T07:02:42;2.60;99.90
25188;DHT22;13141;50.414;8.050;2023-03-11T07:05:08;2.70;99.90
25188;DHT22;13141;50.414;8.050;2023-03-11T07:07:34;2.70;99.90
25188;DHT22;13141;50.414;8.050;2023-03-11T07:10:00;2.70;99.90
25188;DHT22;13141;50.414;8.050;2023-03-11T07:12:25;2.70;99.90
25188;DHT22;13141;50.414;8.050;2023-03-11T07:14:53;2.80;99.90
25188;DHT22;13141;50.414;8.050;2023-03-11T07:17:20;2.80;99.90
25188;DHT22;13141;50.414;8.050;2023-03-11T07:19:46;2.90;99.90
25188;DHT22;13141;50.414;8.050;2023-03-11T07:22:13;3.00;99.90
25188;DHT22;13141;50.414;8.050;2023-03-11T07:24:38;3.00;99.90
25188;DHT22;13141;50.414;8.050;2023-03-11T07:27:04;3.10;99.90
25188;DHT22;13141;50.414;8.050;2023-03-11T07:29:29;3.10;99.90
25188;DHT22;13141;50.414;8.050;2023-03-11T07:31:55;3.10;99.90
25188;DHT22;13141;50.414;8.050;2023-03-11T07:34:22;3.10;99.90
25188;DHT22;13141;50.414;8.050;2023-03-11T07:36:48;3.10;99.90
25188;DHT22;13141;50.414;8.050;2023-03-11T07:39:15;3.20;99.90
25188;DHT22;13141;50.414;8.050;2023-03-11T07:41:41;3.30;99.90
25188;DHT22;13141;50.414;8.050;2023-03-11T07:44:11;3.30;99.90
25188;DHT22;13141;50.414;8.050;2023-03-11T07:46:37;3.30;99.90
25188;DHT22;13141;50.414;8.050;2023-03-11T07:49:03;3.30;99.90
25188;DHT22;13141;50.414;8.050;2023-03-11T07:51:31;3.30;99.90
25188;DHT22;13141;50.414;8.050;2023-03-11T07:53:59;3.30;99.90
25188;DHT22;13141;50.414;8.050;2023-03-11T07:56:26;3.40;99.90
25188;DHT22;13141;50.414;8.050;2023-03-11T07:58:53;3.40;99.90
25188;DHT22;13141;50.414;8.050;2023-03-11T08:01:21;3.40;99.90
25188;DHT22;13141;50.414;8.050;2023-03-11T08:03:48;3.40;99.90
25188;DHT22;13141;50.414;8.050;2023-03-11T08:06:15;3.60;99.90
25188;DHT22;13141;50.414;8.050;2023-03-11T08:08:42;3.60;99.90
25188;DHT22;13141;50.414;8.050;2023-03-11T08:11:10;3.60;99.90
25188;DHT22;13141;50.414;8.050;2023-03-11T08:13:36;3.70;99.90
25188;DHT22;13141;50.414;8.050;2023-03-11T08:16:02;3.70;99.90
25188;DHT22;13141;50.414;8.050;2023-03-11T08:18:28;3.80;99.90
25188;DHT22;13141;50.414;8.050;2023-03-11T08:20:53;3.80;99.90
25188;DHT22;13141;50.414;8.050;2023-03-11T08:23:19;3.80;99.90
25188;DHT22;13141;50.414;8.050;2023-03-11T08:25:46;3.80;99.90
25188;DHT22;13141;50.414;8.050;2023-03-11T08:28:12;3.80;99.90
25188;DHT22;13141;50.414;8.050;2023-03-11T08:30:37;3.80;99.90
25188;DHT22;13141;50.414;8.050;2023-03-11T08:33:04;4.00;99.90
25188;DHT22;13141;50.414;8.050;2023-03-11T08:35:30;4.20;99.90
25188;DHT22;13141;50.414;8.050;2023-03-11T08:37:55;4.40;99.90
25188;DHT22;13141;50.414;8.050;2023-03-11T08:40:21;4.70;99.90
25188;DHT22;13141;50.414;8.050;2023-03-11T08:42:48;4.80;99.90
25188;DHT22;13141;50.414;8.050;2023-03-11T08:45:14;5.00;99.90
25188;DHT22;13141;50.414;8.050;2023-03-11T08:47:40;5.10;99.60
25188;DHT22;13141;50.414;8.050;2023-03-11T08:50:11;5.20;99.10
25188;DHT22;13141;50.414;8.050;2023-03-11T08:52:37;5.30;99.70
25188;DHT22;13141;50.414;8.050;2023-03-11T08:55:04;5.40;99.20
25188;DHT22;13141;50.414;8.050;2023-03-11T08:57:30;5.70;99.90
25188;DHT22;13141;50.414;8.050;2023-03-11T08:59:57;6.10;99.80
25188;DHT22;13141;50.414;8.050;2023-03-11T09:02:23;6.50;98.80
25188;DHT22;13141;50.414;8.050;2023-03-11T09:04:48;6.70;98.10
25188;DHT22;13141;50.414;8.050;2023-03-11T09:07:14;6.90;97.50
25188;DHT22;13141;50.414;8.050;2023-03-11T09:09:40;7.20;97.40
25188;DHT22;13141;50.414;8.050;2023-03-11T09:12:06;7.50;96.30
25188;DHT22;13141;50.414;8.050;2023-03-11T09:14:32;7.30;96.90
25188;DHT22;13141;50.414;8.050;2023-03-11T09:16:58;7.30;96.20
25188;DHT22;13141;50.414;8.050;2023-03-11T09:19:24;7.30;96.60
25188;DHT22;13141;50.414;8.050;2023-03-11T09:21:50;7.20;96.70
25188;DHT22;13141;50.414;8.050;2023-03-11T09:24:15;7.60;96.50
25188;DHT22;13141;50.414;8.050;2023-03-11T09:26:41;7.70;96.70
25188;DHT22;13141;50.414;8.050;2023-03-11T09:29:06;7.70;95.50
25188;DHT22;13141;50.414;8.050;2023-03-11T09:31:32;7.70;95.00
25188;DHT22;13141;50.414;8.050;2023-03-11T09:33:59;7.60;95.40
25188;DHT22;13141;50.414;8.050;2023-03-11T09:36:25;7.50;96.70
25188;DHT22;13141;50.414;8.050;2023-03-11T09:38:50;7.20;95.10
25188;DHT22;13141;50.414;8.050;2023-03-11T09:41:28;7.00;95.10
25188;DHT22;13141;50.414;8.050;2023-03-11T09:44:05;6.70;94.30
25188;DHT22;13141;50.414;8.050;2023-03-11T09:49:34;7.00;95.50
25188;DHT22;13141;50.414;8.050;2023-03-11T09:52:08;7.20;97.00
25188;DHT22;13141;50.414;8.050;2023-03-11T09:54:38;7.10;95.40
25188;DHT22;13141;50.414;8.050;2023-03-11T09:57:05;7.00;96.60
25188;DHT22;13141;50.414;8.050;2023-03-11T09:59:35;6.80;94.50
25188;DHT22;13141;50.414;8.050;2023-03-11T10:02:01;6.70;95.10
25188;DHT22;13141;50.414;8.050;2023-03-11T10:04:33;6.70;95.90
25188;DHT22;13141;50.414;8.050;2023-03-11T10:07:05;6.60;94.10
25188;DHT22;13141;50.414;8.050;2023-03-11T10:09:36;6.60;95.40
25188;DHT22;13141;50.414;8.050;2023-03-11T10:12:15;6.90;94.60
25188;DHT22;13141;50.414;8.050;2023-03-11T10:14:57;7.70;93.00
25188;DHT22;13141;50.414;8.050;2023-03-11T10:17:39;7.90;92.40
25188;DHT22;13141;50.414;8.050;2023-03-11T10:20:13;7.80;91.80
25188;DHT22;13141;50.414;8.050;2023-03-11T10:22:43;7.60;92.10
25188;DHT22;13141;50.414;8.050;2023-03-11T10:25:15;7.40;93.70
25188;DHT22;13141;50.414;8.050;2023-03-11T10:27:44;7.40;93.00
25188;DHT22;13141;50.414;8.050;2023-03-11T10:30:22;7.20;95.00
25188;DHT22;13141;50.414;8.050;2023-03-11T10:32:53;7.10;93.90
25188;DHT22;13141;50.414;8.050;2023-03-11T10:35:23;7.00;94.10
25188;DHT22;13141;50.414;8.050;2023-03-11T10:37:52;7.00;94.20
25188;DHT22;13141;50.414;8.050;2023-03-11T10:40:27;7.10;94.90
25188;DHT22;13141;50.414;8.050;2023-03-11T10:42:57;7.00;93.50
25188;DHT22;13141;50.414;8.050;2023-03-11T10:45:24;6.90;92.70
25188;DHT22;13141;50.414;8.050;2023-03-11T10:47:51;6.90;93.60
25188;DHT22;13141;50.414;8.050;2023-03-11T10:50:18;6.70;93.50
25188;DHT22;13141;50.414;8.050;2023-03-11T10:53:04;6.60;93.00
25188;DHT22;13141;50.414;8.050;2023-03-11T10:55:30;7.20;93.30
25188;DHT22;13141;50.414;8.050;2023-03-11T10:58:03;8.00;93.20
25188;DHT22;13141;50.414;8.050;2023-03-11T11:00:30;8.80;93.90
25188;DHT22;13141;50.414;8.050;2023-03-11T11:02:56;9.60;90.90
25188;DHT22;13141;50.414;8.050;2023-03-11T11:05:27;10.20;91.30
25188;DHT22;13141;50.414;8.050;2023-03-11T11:08:04;10.80;92.70
25188;DHT22;13141;50.414;8.050;2023-03-11T11:10:30;11.40;88.30
25188;DHT22;13141;50.414;8.050;2023-03-11T11:12:58;11.10;88.60
25188;DHT22;13141;50.414;8.050;2023-03-11T11:15:26;10.80;87.50
25188;DHT22;13141;50.414;8.050;2023-03-11T11:17:53;10.60;87.40
25188;DHT22;13141;50.414;8.050;2023-03-11T11:20:21;10.60;86.00
25188;DHT22;13141;50.414;8.050;2023-03-11T11:22:50;10.70;84.40
25188;DHT22;13141;50.414;8.050;2023-03-11T11:25:29;10.50;81.90
25188;DHT22;13141;50.414;8.050;2023-03-11T11:27:57;10.30;81.30
25188;DHT22;13141;50.414;8.050;2023-03-11T11:30:23;10.00;80.60
25188;DHT22;13141;50.414;8.050;2023-03-11T11:32:49;9.80;82.40
25188;DHT22;13141;50.414;8.050;2023-03-11T11:35:16;9.70;87.50
25188;DHT22;13141;50.414;8.050;2023-03-11T11:37:43;9.50;82.00
25188;DHT22;13141;50.414;8.050;2023-03-11T11:40:26;9.50;82.00
25188;DHT22;13141;50.414;8.050;2023-03-11T11:42:55;9.60;81.50
25188;DHT22;13141;50.414;8.050;2023-03-11T11:45:27;10.00;83.90
25188;DHT22;13141;50.414;8.050;2023-03-11T11:47:56;10.80;78.20
25188;DHT22;13141;50.414;8.050;2023-03-11T11:50:26;11.50;83.90
25188;DHT22;13141;50.414;8.050;2023-03-11T11:52:57;12.00;80.10
25188;DHT22;13141;50.414;8.050;2023-03-11T11:55:29;12.30;81.10
25188;DHT22;13141;50.414;8.050;2023-03-11T11:57:55;12.70;82.20
25188;DHT22;13141;50.414;8.050;2023-03-11T12:00:23;12.90;77.00
25188;DHT22;13141;50.414;8.050;2023-03-11T12:03:05;13.10;77.00
25188;DHT22;13141;50.414;8.050;2023-03-11T12:05:36;12.80;75.50
25188;DHT22;13141;50.414;8.050;2023-03-11T12:08:14;12.40;74.00
25188;DHT22;13141;50.414;8.050;2023-03-11T12:10:46;12.30;76.70
25188;DHT22;13141;50.414;8.050;2023-03-11T12:13:26;12.60;75.40
25188;DHT22;13141;50.414;8.050;2023-03-11T12:15:58;12.50;74.10
25188;DHT22;13141;50.414;8.050;2023-03-11T12:18:29;12.40;75.40
25188;DHT22;13141;50.414;8.050;2023-03-11T12:20:58;12.10;75.20
25188;DHT22;13141;50.414;8.050;2023-03-11T12:23:34;11.90;73.50
25188;DHT22;13141;50.414;8.050;2023-03-11T12:26:15;11.70;72.80
25188;DHT22;13141;50.414;8.050;2023-03-11T12:28:47;11.50;75.30
25188;DHT22;13141;50.414;8.050;2023-03-11T12:31:15;11.30;74.30
25188;DHT22;13141;50.414;8.050;2023-03-11T12:33:43;11.20;73.20
25188;DHT22;13141;50.414;8.050;2023-03-11T12:36:21;11.10;75.40
25188;DHT22;13141;50.414;8.050;2023-03-11T12:38:48;11.10;78.00
25188;DHT22;13141;50.414;8.050;2023-03-11T12:41:30;11.10;77.50
25188;DHT22;13141;50.414;8.050;2023-03-11T12:44:04;11.20;76.30
25188;DHT22;13141;50.414;8.050;2023-03-11T12:47:00;11.40;74.80
25188;DHT22;13141;50.414;8.050;2023-03-11T12:49:27;11.70;69.50
25188;DHT22;13141;50.414;8.050;2023-03-11T12:52:23;11.90;71.20
25188;DHT22;13141;50.414;8.050;2023-03-11T12:58:04;12.20;70.20
25188;DHT22;13141;50.414;8.050;2023-03-11T13:00:46;11.70;69.50
25188;DHT22;13141;50.414;8.050;2023-03-11T13:03:39;11.30;71.90
25188;DHT22;13141;50.414;8.050;2023-03-11T13:06:20;10.90;73.40
25188;DHT22;13141;50.414;8.050;2023-03-11T13:08:51;10.80;76.00
25188;DHT22;13141;50.414;8.050;2023-03-11T13:11:35;10.80;76.00
25188;DHT22;13141;50.414;8.050;2023-03-11T13:14:26;10.70;76.20
25188;DHT22;13141;50.414;8.050;2023-03-11T13:16:53;10.60;75.80
25188;DHT22;13141;50.414;8.050;2023-03-11T13:19:47;10.50;75.40
25188;DHT22;13141;50.414;8.050;2023-03-11T13:22:42;10.60;74.00
25188;DHT22;13141;50.414;8.050;2023-03-11T13:25:32;10.50;73.30
25188;DHT22;13141;50.414;8.050;2023-03-11T13:28:13;10.50;73.50
25188;DHT22;13141;50.414;8.050;2023-03-11T13:30:46;10.40;68.80
25188;DHT22;13141;50.414;8.050;2023-03-11T13:33:30;10.40;73.60
25188;DHT22;13141;50.414;8.050;2023-03-11T13:36:04;10.30;69.20
25188;DHT22;13141;50.414;8.050;2023-03-11T13:38:56;10.20;68.50
25188;DHT22;13141;50.414;8.050;2023-03-11T13:41:29;10.20;69.30
25188;DHT22;13141;50.414;8.050;2023-03-11T13:43:59;10.20;71.10
25188;DHT22;13141;50.414;8.050;2023-03-11T13:46:34;10.10;70.00
25188;DHT22;13141;50.414;8.050;2023-03-11T13:49:04;10.00;69.80
25188;DHT22;13141;50.414;8.050;2023-03-11T13:51:35;10.00;74.00
25188;DHT22;13141;50.414;8.050;2023-03-11T13:54:04;10.00;73.10
25188;DHT22;13141;50.414;8.050;2023-03-11T13:56:37;10.00;74.00
25188;DHT22;13141;50.414;8.050;2023-03-11T13:59:17;10.00;76.00
25188;DHT22;13141;50.414;8.050;2023-03-11T14:01:52;9.90;76.20
25188;DHT22;13141;50.414;8.050;2023-03-11T14:04:22;9.90;77.80
25188;DHT22;13141;50.414;8.050;2023-03-11T14:06:50;9.90;80.30
25188;DHT22;13141;50.414;8.050;2023-03-11T14:09:18;9.90;78.90
25188;DHT22;13141;50.414;8.050;2023-03-11T14:11:45;9.90;80.20
25188;DHT22;13141;50.414;8.050;2023-03-11T14:14:29;10.00;78.60
25188;DHT22;13141;50.414;8.050;2023-03-11T14:16:58;10.10;79.40
25188;DHT22;13141;50.414;8.050;2023-03-11T14:19:24;10.20;74.80
25188;DHT22;13141;50.414;8.050;2023-03-11T14:21:50;10.30;75.60
25188;DHT22;13141;50.414;8.050;2023-03-11T14:24:17;10.40;76.30
25188;DHT22;13141;50.414;8.050;2023-03-11T14:26:44;10.50;72.70
25188;DHT22;13141;50.414;8.050;2023-03-11T14:29:15;10.50;74.20
25188;DHT22;13141;50.414;8.050;2023-03-11T14:31:42;10.50;74.40
25188;DHT22;13141;50.414;8.050;2023-03-11T14:34:14;10.60;75.50
25188;DHT22;13141;50.414;8.050;2023-03-11T14:36:42;10.70;75.00
25188;DHT22;13141;50.414;8.050;2023-03-11T14:39:25;10.80;74.30
25188;DHT22;13141;50.414;8.050;2023-03-11T14:41:54;10.80;78.30
25188;DHT22;13141;50.414;8.050;2023-03-11T14:44:22;10.80;74.70
25188;DHT22;13141;50.414;8.050;2023-03-11T14:46:49;10.70;73.20
25188;DHT22;13141;50.414;8.050;2023-03-11T14:49:19;10.80;74.10
25188;DHT22;13141;50.414;8.050;2023-03-11T14:51:48;10.90;70.70
25188;DHT22;13141;50.414;8.050;2023-03-11T14:54:19;11.40;73.40
25188;DHT22;13141;50.414;8.050;2023-03-11T14:56:49;11.90;69.40
25188;DHT22;13141;50.414;8.050;2023-03-11T14:59:20;12.10;69.30
25188;DHT22;13141;50.414;8.050;2023-03-11T15:01:47;12.30;67.10
25188;DHT22;13141;50.414;8.050;2023-03-11T15:04:23;12.70;70.20
25188;DHT22;13141;50.414;8.050;2023-03-11T15:06:51;13.20;69.70
25188;DHT22;13141;50.414;8.050;2023-03-11T15:09:18;13.60;68.10
25188;DHT22;13141;50.414;8.050;2023-03-11T15:11:46;13.70;65.70
25188;DHT22;13141;50.414;8.050;2023-03-11T15:14:19;13.60;64.30
25188;DHT22;13141;50.414;8.050;2023-03-11T15:16:46;13.80;68.10
25188;DHT22;13141;50.414;8.050;2023-03-11T15:19:29;13.80;64.90
25188;DHT22;13141;50.414;8.050;2023-03-11T15:21:57;13.70;65.20
25188;DHT22;13141;50.414;8.050;2023-03-11T15:24:25;13.80;63.40
25188;DHT22;13141;50.414;8.050;2023-03-11T15:26:53;13.90;63.50
25188;DHT22;13141;50.414;8.050;2023-03-11T15:29:19;14.00;64.50
25188;DHT22;13141;50.414;8.050;2023-03-11T15:31:45;14.10;66.60
25188;DHT22;13141;50.414;8.050;2023-03-11T15:34:23;14.20;63.50
25188;DHT22;13141;50.414;8.050;2023-03-11T15:39:47;13.90;58.80
25188;DHT22;13141;50.414;8.050;2023-03-11T15:42:18;13.80;60.00
25188;DHT22;13141;50.414;8.050;2023-03-11T15:44:54;13.90;62.20
25188;DHT22;13141;50.414;8.050;2023-03-11T15:47:23;13.90;63.50
25188;DHT22;13141;50.414;8.050;2023-03-11T15:49:50;14.00;62.70
25188;DHT22;13141;50.414;8.050;2023-03-11T15:52:18;13.90;64.70
25188;DHT22;13141;50.414;8.050;2023-03-11T15:54:44;13.90;62.40
25188;DHT22;13141;50.414;8.050;2023-03-11T15:57:16;13.80;63.10
25188;DHT22;13141;50.414;8.050;2023-03-11T15:59:44;13.70;63.30